Accident Stinson-Vultee V-77 Reliant 1 N88026,
ASN logo
ASN Wikibase Occurrence # 389319
 
This information is added by users of ASN. Neither ASN nor the Flight Safety Foundation are responsible for the completeness or correctness of this information. If you feel this information is incomplete or incorrect, you can submit corrected information.

Date:Sunday 9 June 2024
Time:c. 16:30 LT
Type:Silhouette image of generic RELI model; specific model in this crash may look slightly different    
Stinson-Vultee V-77 Reliant 1
Owner/operator:Texas Air Museum
Registration: N88026
MSN: 77-411
Year of manufacture:1944
Fatalities:Fatalities: 0 / Occupants: 2
Aircraft damage: Substantial
Category:Accident
Location:City of Slaton/Larry T Neal Memorial Airport (F49), Slaton, TX -   United States of America
Phase: Landing
Nature:Private
Departure airport:Lubbock Preston Smith International Airport, TX (LBB/KLBB)
Destination airport:City of Slaton/Larry T Neal Memorial Airport (F49)
Investigating agency: NTSB
Confidence Rating: Information is only available from news, social media or unofficial sources
Narrative:
The Stinson-Vultee V-77 Reliant 1 "London Knights", flipped over during a landing attempt on Rwy 18 in gusting wind conditions at City of Slaton/Larry T Neal Memorial Airport (F49), Slaton, Texas.
The pilot sustained serious injuries, and passenger received minor injuries. The aircraft was substantially damaged.

Former RAF: FB684

METARs:
At 16:24 LT: METAR KLBB 092124Z 03031G42KT 2SM R17R/3500VP6000FT TS BLDU SCT065CB BKN090 BKN110 28/15 A2994 RMK AO2 PK WND 03042/2123 WSHFT 2110 LTG DSNT N AND NE TSB14 OCNL LTGICCG NW-NE TS NW-NE MOV W T02780150 $

At 16:34 LT: METAR KLBB 092134Z 03021G44KT 6SM TS BLDU BKN070CB BKN095 BKN140 25/16 A2995 RMK AO2 PK WND 03044/2128 WSHFT 2110 LTG DSNT NE TSB14 OCNL LTGICCG NW-NE TS NW-NE MOV W T02500156 $

At 16:53 LT: METAR KLBB 092153Z 02017G32KT 10SM -TSRA BKN065CB BKN090 BKN130 27/15 A2994 RMK AO2 PK WND 03044/2128 WSHFT 2110 LTG DSNT N AND NW RAB53 TSB14 SLP081 OCNL LTGICCG NW-NE TS NW-NE MOV W SLO P0000 T02670150 $

Sources:

https://www.kcbd.com/2024/06/09/small-plane-flips-upside-down-runway-slaton-airport/
https://www.everythinglubbock.com/news/local-news/2-hurt-after-plane-flips-at-slaton-airport/

https://registry.faa.gov/AircraftInquiry/Search/NNumberResult?nNumberTxt=88026
https://www.aerialvisuals.ca/AirframeDossier.php?Serial=33367

https://photos.flightaware.com/photos/retriever/9a983f1c2f509c1ada9ef8be9222d0647f851985 (photo)

Location

Revision history:

Date/timeContributorUpdates
10-Jun-2024 12:56 lagi Added
10-Jun-2024 16:10 Captain Adam Updated [Aircraft type, Location, Nature, Damage, Narrative, Plane category, Category]
10-Jun-2024 16:19 Propstrike Updated [Aircraft type]
10-Jun-2024 16:20 ASN Updated [Aircraft type, Registration, Cn, Source, Plane category]
10-Jun-2024 17:56 Captain Adam Updated [Location, Nature, Destination airport, Source, Damage, Narrative, Category]
11-Jun-2024 05:46 johnwg Updated [Time, Aircraft type, Source, Narrative, Category]

Corrections or additions? ... Edit this accident description

The Aviation Safety Network is an exclusive service provided by:
Quick Links:

CONNECT WITH US: FSF on social media FSF Facebook FSF Twitter FSF Youtube FSF LinkedIn FSF Instagram

©2024 Flight Safety Foundation

1920 Ballenger Av, 4th Fl.
Alexandria, Virginia 22314
www.FlightSafety.org